Time;durP1;ratioP1;P1;durP2;ratioP2;P2;SDS_P1;SDS_P2;PMS_P1;PMS_P2;Temp;Humidity;BMP_temperature;BMP_pressure;BME280_temperature;BME280_humidity;BME280_pressure;Samples;Min_cycle;Max_cycle;Signal;HPM_P1;HPM_P2
2022/06/09 00:01:21;;;;;;;31.52;7.30;;;;;;;;;;4375398;32;20295;-80
2022/06/09 00:04:02;;;;;;;26.48;6.70;;;;;;;;;;4375576;32;20114;-80
2022/06/09 00:06:40;;;;;;;31.95;6.82;;;;;;;;;;4375312;32;20058;-79
2022/06/09 00:09:05;;;;;;;28.80;6.90;;;;;;;;;;4376703;32;20360;-80
2022/06/09 00:11:33;;;;;;;30.83;6.97;;;;;;;;;;4375070;32;20063;-81
2022/06/09 00:13:58;;;;;;;29.02;5.95;;;;;;;;;;4361615;32;20125;-80
2022/06/09 00:16:24;;;;;;;27.30;6.32;;;;;;;;;;4374769;32;20424;-80
2022/06/09 00:18:49;;;;;;;23.73;6.03;;;;;;;;;;4376538;32;20114;-81
2022/06/09 00:21:14;;;;;;;31.55;6.37;;;;;;;;;;4378621;32;20081;-80
2022/06/09 00:23:40;;;;;;;22.58;6.93;;;;;;;;;;4378837;32;20361;-80
2022/06/09 00:26:05;;;;;;;24.08;6.72;;;;;;;;;;4377612;32;20114;-79
2022/06/09 00:28:30;;;;;;;22.92;6.28;;;;;;;;;;4377898;32;20053;-80
2022/06/09 00:30:59;;;;;;;18.33;6.07;;;;;;;;;;4378917;32;20410;-79
2022/06/09 00:33:25;;;;;;;17.70;6.53;;;;;;;;;;4377872;32;20030;-80
2022/06/09 00:35:50;;;;;;;30.27;7.07;;;;;;;;;;4377526;32;20100;-80
2022/06/09 00:38:16;;;;;;;22.13;7.18;;;;;;;;;;4378184;32;20039;-79
2022/06/09 00:40:41;;;;;;;29.45;7.53;;;;;;;;;;4378085;32;20069;-79
2022/06/09 00:43:07;;;;;;;21.02;5.32;;;;;;;;;;4378113;32;20035;-79
2022/06/09 00:45:37;;;;;;;20.55;5.72;;;;;;;;;;4377475;32;20397;-79
2022/06/09 00:48:20;;;;;;;26.25;5.22;;;;;;;;;;4377733;32;20065;-79
2022/06/09 00:50:47;;;;;;;19.55;5.05;;;;;;;;;;4365296;32;20089;-79
2022/06/09 00:53:16;;;;;;;26.33;6.82;;;;;;;;;;4362308;32;20084;-79
2022/06/09 00:55:42;;;;;;;19.17;4.55;;;;;;;;;;4371379;32;20088;-79
2022/06/09 00:58:07;;;;;;;;;;;;;;;;;;4378150;32;20027;-80
2022/06/09 01:00:41;;;;;;;18.12;4.37;;;;;;;;;;4378332;32;19949;-79
2022/06/09 01:03:06;;;;;;;18.15;4.60;;;;;;;;;;4378688;32;20019;-79
2022/06/09 01:05:32;;;;;;;20.37;4.35;;;;;;;;;;4377093;32;20047;-79
2022/06/09 01:08:00;;;;;;;28.00;4.43;;;;;;;;;;4377106;32;20380;-79
2022/06/09 01:10:29;;;;;;;17.98;4.00;;;;;;;;;;4376753;32;20146;-79
2022/06/09 01:12:55;;;;;;;17.25;4.22;;;;;;;;;;4378262;32;20066;-80
2022/06/09 01:15:22;;;;;;;24.60;5.00;;;;;;;;;;4376914;32;20365;-79
2022/06/09 01:17:53;;;;;;;16.87;4.72;;;;;;;;;;4377231;32;20060;-79
2022/06/09 01:20:37;;;;;;;13.57;3.67;;;;;;;;;;4377337;32;20057;-79
2022/06/09 01:23:31;;;;;;;17.52;3.95;;;;;;;;;;4377207;32;20054;-80
2022/06/09 01:26:02;;;;;;;17.30;4.97;;;;;;;;;;4378399;32;20092;-80
2022/06/09 01:28:37;;;;;;;18.65;3.95;;;;;;;;;;4377351;32;20054;-80
2022/06/09 01:31:14;;;;;;;16.20;4.82;;;;;;;;;;4377632;32;20401;-80
2022/06/09 01:33:59;;;;;;;16.58;3.75;;;;;;;;;;4377439;32;20087;-79
2022/06/09 01:36:37;;;;;;;17.30;4.87;;;;;;;;;;4362992;32;20409;-80
2022/06/09 01:39:05;;;;;;;17.45;3.97;;;;;;;;;;4362921;32;20011;-79
2022/06/09 01:41:30;;;;;;;15.15;4.57;;;;;;;;;;4362258;32;20039;-79
2022/06/09 01:43:56;;;;;;;19.80;5.72;;;;;;;;;;4362321;32;20077;-80
2022/06/09 01:46:32;;;;;;;12.65;4.37;;;;;;;;;;4361724;32;20050;-80
2022/06/09 01:49:01;;;;;;;12.65;3.95;;;;;;;;;;4361997;32;20089;-80
2022/06/09 01:51:29;;;;;;;21.60;4.35;;;;;;;;;;4386741;32;20394;-79
2022/06/09 01:54:05;;;;;;;10.38;3.75;;;;;;;;;;4376987;32;20097;-80
2022/06/09 01:56:39;;;;;;;11.10;3.78;;;;;;;;;;4377054;32;20053;-79
2022/06/09 01:59:14;;;;;;;14.55;4.25;;;;;;;;;;4376962;32;20054;-79
2022/06/09 02:01:42;;;;;;;15.57;4.40;;;;;;;;;;4377382;32;20035;-79
2022/06/09 02:04:11;;;;;;;14.98;3.97;;;;;;;;;;4377200;32;20066;-79
2022/06/09 02:09:50;;;;;;;14.10;3.80;;;;;;;;;;4370418;32;20433;-79
2022/06/09 02:12:26;;;;;;;;;;;;;;;;;;;;;
2022/06/09 02:14:55;;;;;;;12.23;4.00;;;;;;;;;;4373562;32;20035;-79
2022/06/09 02:17:23;;;;;;;9.18;3.58;;;;;;;;;;4377496;32;20061;-79
2022/06/09 02:19:51;;;;;;;21.42;3.30;;;;;;;;;;4371650;32;20086;-79
2022/06/09 02:22:17;;;;;;;12.63;3.22;;;;;;;;;;4361695;32;20128;-80
2022/06/09 02:24:42;;;;;;;;;;;;;;;;;;4362357;32;20028;-79
2022/06/09 02:27:09;;;;;;;12.25;3.60;;;;;;;;;;4361311;32;20304;-79
2022/06/09 02:35:24;;;;;;;14.98;3.78;;;;;;;;;;4361945;32;20082;-80
2022/06/09 02:37:49;;;;;;;19.92;4.65;;;;;;;;;;4361928;32;20039;-79
2022/06/09 02:40:35;;;;;;;12.07;3.10;;;;;;;;;;4361885;32;20055;-79
2022/06/09 02:43:00;;;;;;;19.27;4.37;;;;;;;;;;4361907;32;20406;-79
2022/06/09 02:45:27;;;;;;;10.77;3.42;;;;;;;;;;4361237;32;20123;-79
2022/06/09 02:47:52;;;;;;;11.68;3.67;;;;;;;;;;4347078;33;20061;-80
2022/06/09 02:50:20;;;;;;;32.08;5.47;;;;;;;;;;4360814;32;20066;-79
2022/06/09 02:52:48;;;;;;;14.43;3.53;;;;;;;;;;4361772;32;20027;-79
2022/06/09 02:55:14;;;;;;;11.55;4.72;;;;;;;;;;4360577;32;20373;-79
2022/06/09 02:57:48;;;;;;;9.95;3.35;;;;;;;;;;4361920;32;20035;-79
2022/06/09 03:00:15;;;;;;;16.30;4.53;;;;;;;;;;4361184;32;20089;-79
2022/06/09 03:02:51;;;;;;;11.45;3.03;;;;;;;;;;4360770;32;20402;-79
2022/06/09 03:05:16;;;;;;;10.37;3.43;;;;;;;;;;4361407;32;20373;-79
2022/06/09 03:07:42;;;;;;;16.50;4.53;;;;;;;;;;4360955;32;20421;-79
2022/06/09 03:10:09;;;;;;;18.85;3.55;;;;;;;;;;4362197;32;20043;-79
2022/06/09 03:12:35;;;;;;;10.73;3.40;;;;;;;;;;4362282;32;20093;-79
2022/06/09 03:15:00;;;;;;;9.23;3.30;;;;;;;;;;4361591;32;20035;-79
2022/06/09 03:17:26;;;;;;;10.35;3.45;;;;;;;;;;4360657;32;20027;-79
2022/06/09 03:19:51;;;;;;;18.15;3.42;;;;;;;;;;4364021;32;20057;-79
2022/06/09 03:22:33;;;;;;;12.80;3.15;;;;;;;;;;4376371;32;20425;-79
2022/06/09 03:37:11;;;;;;;13.05;2.67;;;;;;;;;;4375334;32;20492;-80
2022/06/09 03:39:38;;;;;;;11.57;3.50;;;;;;;;;;4375287;32;20089;-80
2022/06/09 03:42:03;;;;;;;11.52;2.55;;;;;;;;;;4375092;32;20092;-80
2022/06/09 03:44:29;;;;;;;8.93;2.50;;;;;;;;;;4375019;32;20051;-80
2022/06/09 03:46:54;;;;;;;11.98;2.75;;;;;;;;;;4374983;32;20047;-80
2022/06/09 03:49:20;;;;;;;10.27;2.40;;;;;;;;;;4370996;32;20373;-80
2022/06/09 03:51:45;;;;;;;8.75;2.30;;;;;;;;;;4361174;32;20039;-80
2022/06/09 03:54:11;;;;;;;13.57;2.87;;;;;;;;;;4349715;33;20031;-80
2022/06/09 03:56:36;;;;;;;7.75;2.75;;;;;;;;;;4363800;32;20417;-79
2022/06/09 03:59:02;;;;;;;14.32;2.30;;;;;;;;;;4357539;33;20417;-79
2022/06/09 04:01:27;;;;;;;8.85;1.90;;;;;;;;;;4377027;32;20456;-77
2022/06/09 04:03:52;;;;;;;8.43;2.10;;;;;;;;;;4379862;32;20092;-79
2022/06/09 04:06:19;;;;;;;7.65;1.95;;;;;;;;;;4378558;32;20070;-79
2022/06/09 04:08:44;;;;;;;8.82;2.15;;;;;;;;;;4379743;32;20466;-79
2022/06/09 04:11:10;;;;;;;16.65;3.00;;;;;;;;;;4379369;32;20114;-80
2022/06/09 04:13:39;;;;;;;9.02;2.10;;;;;;;;;;4379690;32;20365;-79
2022/06/09 04:16:25;;;;;;;7.05;2.08;;;;;;;;;;4380264;32;20084;-79
2022/06/09 04:18:54;;;;;;;8.70;1.83;;;;;;;;;;4378885;32;20039;-78
2022/06/09 04:21:23;;;;;;;5.78;1.73;;;;;;;;;;4379009;32;20055;-79
2022/06/09 04:23:58;;;;;;;9.48;1.80;;;;;;;;;;4379153;32;20093;-80
2022/06/09 04:26:30;;;;;;;4.90;1.80;;;;;;;;;;4379645;32;20106;-79
2022/06/09 04:28:56;;;;;;;4.80;1.77;;;;;;;;;;4379561;32;20034;-79
2022/06/09 04:31:30;;;;;;;4.15;1.98;;;;;;;;;;4380057;32;20056;-79
2022/06/09 04:33:55;;;;;;;5.87;1.70;;;;;;;;;;4381427;32;20027;-79
2022/06/09 04:36:20;;;;;;;6.28;1.62;;;;;;;;;;4379639;32;20138;-78
2022/06/09 04:38:46;;;;;;;10.88;2.75;;;;;;;;;;4379363;32;20031;-79
2022/06/09 04:41:15;;;;;;;3.97;1.58;;;;;;;;;;4379305;32;20053;-80
2022/06/09 04:43:41;;;;;;;7.72;1.83;;;;;;;;;;4378682;32;20110;-78
2022/06/09 04:48:40;;;;;;;9.00;1.87;;;;;;;;;;4378506;32;20407;-80
2022/06/09 04:54:10;;;;;;;12.55;2.17;;;;;;;;;;4378872;32;20042;-79
2022/06/09 04:56:36;;;;;;;8.10;2.20;;;;;;;;;;4378745;32;20134;-79
2022/06/09 04:59:02;;;;;;;6.47;2.30;;;;;;;;;;4379112;32;20053;-80
2022/06/09 05:01:48;;;;;;;7.35;2.33;;;;;;;;;;4379557;32;20340;-79
2022/06/09 05:04:16;;;;;;;7.03;2.33;;;;;;;;;;4378252;32;20443;-79
2022/06/09 05:06:48;;;;;;;8.18;2.65;;;;;;;;;;4378213;32;20053;-80
2022/06/09 05:10:14;;;;;;;6.60;2.37;;;;;;;;;;4379166;32;20375;-79
2022/06/09 05:12:12;;;;;;;8.13;2.47;;;;;;;;;;4370383;32;20112;-79
2022/06/09 05:14:37;;;;;;;12.13;3.55;;;;;;;;;;4389661;32;20395;-80
2022/06/09 05:17:05;;;;;;;5.05;2.40;;;;;;;;;;4377513;32;20026;-81
2022/06/09 05:19:31;;;;;;;3.67;1.98;;;;;;;;;;4376713;32;20077;-79
2022/06/09 05:21:59;;;;;;;6.70;2.33;;;;;;;;;;4379082;32;20035;-80
2022/06/09 05:24:24;;;;;;;5.65;2.15;;;;;;;;;;4377063;32;20023;-79
2022/06/09 05:26:50;;;;;;;4.22;1.75;;;;;;;;;;4377392;32;20054;-79
2022/06/09 05:29:15;;;;;;;5.57;2.15;;;;;;;;;;4378625;32;20031;-79
2022/06/09 05:31:40;;;;;;;5.18;2.20;;;;;;;;;;4376872;32;20080;-76
2022/06/09 05:34:06;;;;;;;10.63;2.97;;;;;;;;;;4377637;32;20069;-77
2022/06/09 05:36:31;;;;;;;5.50;2.22;;;;;;;;;;4377485;32;20039;-79
2022/06/09 05:47:12;;;;;;;6.43;2.60;;;;;;;;;;4377108;32;20053;-76
2022/06/09 05:49:37;;;;;;;10.93;2.70;;;;;;;;;;4367843;32;20035;-78
2022/06/09 05:52:03;;;;;;;10.95;4.82;;;;;;;;;;4362818;32;20420;-78
2022/06/09 05:54:28;;;;;;;11.98;3.08;;;;;;;;;;4361277;32;20104;-78
2022/06/09 05:56:54;;;;;;;15.18;3.53;;;;;;;;;;4362346;32;20022;-75
2022/06/09 05:59:19;;;;;;;5.03;2.65;;;;;;;;;;4362570;32;20069;-72
2022/06/09 06:01:45;;;;;;;14.02;3.62;;;;;;;;;;4361051;33;20418;-77
2022/06/09 06:04:10;;;;;;;11.23;4.03;;;;;;;;;;4361194;32;20047;-77
2022/06/09 06:06:36;;;;;;;8.95;4.10;;;;;;;;;;4361521;32;20058;-79
2022/06/09 06:09:15;;;;;;;9.93;4.15;;;;;;;;;;4361407;32;20073;-78
2022/06/09 06:11:41;;;;;;;11.93;5.60;;;;;;;;;;4361600;32;20047;-79
2022/06/09 06:14:08;;;;;;;14.23;5.03;;;;;;;;;;4360582;33;20111;-80
2022/06/09 06:16:34;;;;;;;8.98;4.75;;;;;;;;;;4360036;32;20365;-80
2022/06/09 06:18:59;;;;;;;11.40;4.95;;;;;;;;;;4365571;32;20053;-80
2022/06/09 06:21:24;;;;;;;10.98;4.95;;;;;;;;;;4376066;32;20337;-80
2022/06/09 06:23:50;;;;;;;14.02;5.40;;;;;;;;;;4375997;32;20035;-80
2022/06/09 06:26:16;;;;;;;14.70;5.12;;;;;;;;;;4376170;32;20035;-81
2022/06/09 06:28:41;;;;;;;8.45;4.78;;;;;;;;;;4361912;32;20057;-80
2022/06/09 06:31:42;;;;;;;10.30;5.40;;;;;;;;;;4376218;32;20023;-80
2022/06/09 06:34:10;;;;;;;10.23;4.72;;;;;;;;;;4345986;32;20376;-81
2022/06/09 06:36:36;;;;;;;14.95;5.22;;;;;;;;;;4376247;32;20022;-80
2022/06/09 06:39:04;;;;;;;12.35;5.50;;;;;;;;;;4375618;32;20073;-79
2022/06/09 06:41:30;;;;;;;7.43;4.70;;;;;;;;;;4375914;32;20057;-80
2022/06/09 06:43:56;;;;;;;10.45;4.80;;;;;;;;;;4376782;32;20391;-80
2022/06/09 06:46:22;;;;;;;12.18;5.45;;;;;;;;;;4362197;32;20045;-78
2022/06/09 06:48:47;;;;;;;10.95;5.32;;;;;;;;;;4369081;32;20039;-80
2022/06/09 06:51:13;;;;;;;6.75;3.55;;;;;;;;;;4360480;32;20105;-79
2022/06/09 06:53:39;;;;;;;7.87;4.15;;;;;;;;;;4360418;33;20059;-79
2022/06/09 06:56:04;;;;;;;5.30;2.97;;;;;;;;;;4361149;32;20035;-80
2022/06/09 06:58:30;;;;;;;5.43;3.53;;;;;;;;;;4360942;32;20365;-80
2022/06/09 07:00:57;;;;;;;6.93;4.32;;;;;;;;;;4361108;32;20054;-81
2022/06/09 07:03:23;;;;;;;5.78;3.42;;;;;;;;;;4360313;32;20413;-81
2022/06/09 07:05:49;;;;;;;6.20;3.53;;;;;;;;;;4360761;32;20080;-80
2022/06/09 07:08:16;;;;;;;8.07;4.20;;;;;;;;;;4360677;32;20065;-80
2022/06/09 07:10:41;;;;;;;8.57;3.70;;;;;;;;;;4360412;32;20471;-81
2022/06/09 07:13:07;;;;;;;6.50;3.65;;;;;;;;;;4361094;32;20087;-80
2022/06/09 07:15:32;;;;;;;7.32;3.90;;;;;;;;;;4361305;32;20057;-80
2022/06/09 07:17:57;;;;;;;8.52;4.50;;;;;;;;;;4360807;32;20512;-81
2022/06/09 07:20:23;;;;;;;10.20;4.90;;;;;;;;;;4373210;32;20031;-80
2022/06/09 07:22:48;;;;;;;8.90;4.95;;;;;;;;;;4361415;32;20066;-80
2022/06/09 07:25:15;;;;;;;10.77;4.57;;;;;;;;;;4374874;32;20031;-81
2022/06/09 07:27:41;;;;;;;9.10;4.12;;;;;;;;;;4375296;32;20035;-78
2022/06/09 07:30:06;;;;;;;10.38;4.00;;;;;;;;;;4375569;32;20311;-81
2022/06/09 07:32:32;;;;;;;7.70;4.50;;;;;;;;;;4375233;32;20089;-80
2022/06/09 07:34:57;;;;;;;8.25;4.07;;;;;;;;;;4375337;32;20066;-80
2022/06/09 07:37:25;;;;;;;14.77;4.80;;;;;;;;;;4375492;32;20027;-78
2022/06/09 07:39:50;;;;;;;11.38;4.18;;;;;;;;;;4361079;32;20330;-80
2022/06/09 07:42:15;;;;;;;10.63;4.45;;;;;;;;;;4375314;32;20080;-78
2022/06/09 07:44:41;;;;;;;5.60;3.40;;;;;;;;;;4375424;32;20109;-80
2022/06/09 07:47:06;;;;;;;8.32;3.92;;;;;;;;;;4374835;32;20023;-81
2022/06/09 07:49:32;;;;;;;14.43;5.15;;;;;;;;;;4362012;32;20024;-81
2022/06/09 07:51:57;;;;;;;7.87;3.97;;;;;;;;;;4360948;32;20374;-81
2022/06/09 07:54:23;;;;;;;15.43;4.60;;;;;;;;;;4360145;33;20035;-80
2022/06/09 07:56:48;;;;;;;12.20;4.65;;;;;;;;;;4360184;33;20059;-80
2022/06/09 07:59:14;;;;;;;12.93;4.95;;;;;;;;;;4359893;33;20397;-80
2022/06/09 08:01:39;;;;;;;14.15;4.95;;;;;;;;;;4359936;33;20035;-81
2022/06/09 08:04:04;;;;;;;8.57;3.80;;;;;;;;;;4360840;33;20393;-80
2022/06/09 08:06:30;;;;;;;10.40;4.45;;;;;;;;;;4359967;33;20027;-80
2022/06/09 08:08:57;;;;;;;11.25;4.47;;;;;;;;;;4359896;32;20095;-79
2022/06/09 08:11:22;;;;;;;8.65;3.40;;;;;;;;;;4360311;32;20094;-79
2022/06/09 08:13:47;;;;;;;14.07;3.70;;;;;;;;;;4360206;32;20047;-79
2022/06/09 08:16:13;;;;;;;10.68;3.55;;;;;;;;;;4371775;32;20058;-79
2022/06/09 08:18:38;;;;;;;10.30;3.12;;;;;;;;;;4367165;32;20070;-80
2022/06/09 08:21:04;;;;;;;9.93;2.42;;;;;;;;;;4363355;32;20031;-80
2022/06/09 08:23:30;;;;;;;6.68;2.35;;;;;;;;;;4358980;33;20109;-77
2022/06/09 08:25:58;;;;;;;10.48;2.35;;;;;;;;;;4360525;33;20417;-80
2022/06/09 08:28:27;;;;;;;12.02;2.28;;;;;;;;;;4360396;32;20361;-80
2022/06/09 08:30:53;;;;;;;10.77;2.37;;;;;;;;;;4346094;33;20039;-80
2022/06/09 08:33:19;;;;;;;7.22;2.65;;;;;;;;;;4358526;33;20397;-78
2022/06/09 08:35:45;;;;;;;9.32;2.08;;;;;;;;;;4360139;33;20027;-79
2022/06/09 08:38:10;;;;;;;8.93;2.78;;;;;;;;;;4360700;32;20106;-81
2022/06/09 08:44:05;;;;;;;6.25;1.95;;;;;;;;;;4346403;33;20054;-80
2022/06/09 08:46:42;;;;;;;12.93;2.50;;;;;;;;;;4345857;33;20036;-81
2022/06/09 08:49:40;;;;;;;9.93;2.47;;;;;;;;;;4360264;32;20093;-80
2022/06/09 08:52:12;;;;;;;10.85;2.12;;;;;;;;;;4352962;32;20107;-80
2022/06/09 08:54:38;;;;;;;8.65;2.47;;;;;;;;;;4362882;32;20345;-81
2022/06/09 08:57:28;;;;;;;;;;;;;;;;;;;;;
2022/06/09 08:59:59;;;;;;;8.75;2.00;;;;;;;;;;4362247;32;20040;-81
2022/06/09 09:02:31;;;;;;;9.57;2.25;;;;;;;;;;4363122;32;20046;-81
2022/06/09 09:05:11;;;;;;;11.55;3.85;;;;;;;;;;4362414;32;20115;-80
2022/06/09 09:10:51;;;;;;;7.22;2.33;;;;;;;;;;4353466;32;20535;-79
2022/06/09 09:13:19;;;;;;;12.27;2.22;;;;;;;;;;4363013;32;20035;-79
2022/06/09 09:15:54;;;;;;;10.88;2.40;;;;;;;;;;4361805;32;20091;-81
2022/06/09 09:18:38;;;;;;;11.98;3.28;;;;;;;;;;4362435;32;20122;-80
2022/06/09 09:21:41;;;;;;;;;;;;;;;;;;;;;
2022/06/09 09:24:14;;;;;;;7.45;2.37;;;;;;;;;;4377001;32;20057;-79
2022/06/09 09:27:01;;;;;;;15.00;2.87;;;;;;;;;;4377814;32;20015;-80
2022/06/09 09:29:44;;;;;;;17.00;3.03;;;;;;;;;;4377402;32;20027;-79
2022/06/09 09:32:14;;;;;;;10.48;2.28;;;;;;;;;;4377205;32;20049;-80
2022/06/09 09:34:44;;;;;;;12.85;2.60;;;;;;;;;;4376573;32;20073;-81
2022/06/09 09:40:28;;;;;;;6.97;2.20;;;;;;;;;;4330469;33;20113;-80
2022/06/09 09:42:55;;;;;;;14.68;2.58;;;;;;;;;;4330725;33;20024;-80
2022/06/09 09:45:31;;;;;;;7.70;2.55;;;;;;;;;;4375485;32;20085;-80
2022/06/09 09:47:58;;;;;;;9.30;2.20;;;;;;;;;;4363138;32;20065;-79
2022/06/09 09:50:48;;;;;;;10.02;1.85;;;;;;;;;;4376530;32;20050;-80
2022/06/09 09:53:19;;;;;;;11.80;2.37;;;;;;;;;;4377758;32;20061;-79
2022/06/09 09:56:05;;;;;;;14.15;3.00;;;;;;;;;;4377193;32;20088;-79
2022/06/09 09:58:48;;;;;;;18.23;4.13;;;;;;;;;;4377181;32;20027;-80
2022/06/09 10:01:23;;;;;;;11.80;2.33;;;;;;;;;;4376307;32;20019;-80
2022/06/09 10:09:48;;;;;;;5.35;1.92;;;;;;;;;;4376729;32;20038;-80
2022/06/09 10:12:18;;;;;;;8.77;2.62;;;;;;;;;;4376794;32;20092;-80
2022/06/09 10:14:53;;;;;;;7.05;2.30;;;;;;;;;;4377135;32;20022;-79
2022/06/09 10:17:39;;;;;;;8.90;2.08;;;;;;;;;;4376149;32;20422;-80
2022/06/09 10:26:17;;;;;;;6.87;1.90;;;;;;;;;;4376849;32;20038;-80
2022/06/09 10:28:58;;;;;;;9.82;2.25;;;;;;;;;;4375509;32;20349;-81
2022/06/09 10:31:56;;;;;;;8.30;2.35;;;;;;;;;;4375853;32;20027;-80
2022/06/09 10:34:43;;;;;;;10.57;2.85;;;;;;;;;;4350879;32;20061;-80
2022/06/09 10:37:37;;;;;;;;;;;;;;;;;;;;;
2022/06/09 10:40:18;;;;;;;10.18;2.90;;;;;;;;;;4366077;32;20069;-81
2022/06/09 10:55:18;;;;;;;11.20;3.00;;;;;;;;;;4329148;33;20054;-79
2022/06/09 10:57:50;;;;;;;9.05;2.33;;;;;;;;;;4351539;33;20377;-80
2022/06/09 11:00:19;;;;;;;9.57;2.40;;;;;;;;;;4347479;33;20352;-79
2022/06/09 11:02:51;;;;;;;8.25;2.78;;;;;;;;;;4361660;32;20078;-80
2022/06/09 11:05:39;;;;;;;13.73;4.78;;;;;;;;;;4360971;32;20365;-79
2022/06/09 11:08:35;;;;;;;9.65;3.20;;;;;;;;;;4362021;32;20053;-80
2022/06/09 11:11:05;;;;;;;10.38;2.87;;;;;;;;;;4360446;32;20483;-80
2022/06/09 11:13:52;;;;;;;7.97;2.83;;;;;;;;;;4346857;33;20045;-81
2022/06/09 11:16:23;;;;;;;8.65;2.70;;;;;;;;;;4360465;32;20031;-80
2022/06/09 11:18:51;;;;;;;8.48;2.40;;;;;;;;;;4360509;32;20076;-79
2022/06/09 11:21:21;;;;;;;10.02;2.58;;;;;;;;;;4360928;32;20147;-79
2022/06/09 11:24:10;;;;;;;8.68;2.60;;;;;;;;;;4360372;32;20020;-79
2022/06/09 11:26:40;;;;;;;8.18;2.47;;;;;;;;;;4360304;32;20027;-80
2022/06/09 11:29:24;;;;;;;8.38;2.00;;;;;;;;;;4360457;33;20023;-79
2022/06/09 11:32:01;;;;;;;11.20;2.83;;;;;;;;;;4360087;32;20047;-80
2022/06/09 11:34:36;;;;;;;9.02;2.95;;;;;;;;;;4359230;32;20070;-80
2022/06/09 11:37:10;;;;;;;12.18;3.00;;;;;;;;;;4360327;32;20074;-80
2022/06/09 11:40:01;;;;;;;12.50;2.50;;;;;;;;;;4360408;32;20094;-81
2022/06/09 11:42:45;;;;;;;7.57;2.30;;;;;;;;;;4359865;32;20024;-81
2022/06/09 11:45:28;;;;;;;10.57;3.28;;;;;;;;;;4360731;32;20099;-79
2022/06/09 11:51:05;;;;;;;8.23;2.40;;;;;;;;;;4344211;33;20408;-80
2022/06/09 11:53:35;;;;;;;13.50;2.12;;;;;;;;;;4343506;33;20032;-80
2022/06/09 11:56:33;;;;;;;6.97;2.65;;;;;;;;;;4368395;32;20419;-80
2022/06/09 11:59:04;;;;;;;7.82;2.72;;;;;;;;;;4375496;32;20031;-81
2022/06/09 12:04:52;;;;;;;12.55;2.72;;;;;;;;;;4313777;33;20028;-80
2022/06/09 12:07:29;;;;;;;11.60;2.75;;;;;;;;;;4375459;32;20022;-78
2022/06/09 12:10:13;;;;;;;8.60;2.42;;;;;;;;;;4375080;32;20043;-81
2022/06/09 12:12:40;;;;;;;6.78;2.53;;;;;;;;;;4374541;32;20064;-81
2022/06/09 12:15:29;;;;;;;11.77;3.00;;;;;;;;;;4378417;32;20016;-79
2022/06/09 12:18:03;;;;;;;10.30;3.12;;;;;;;;;;4369030;32;20103;-79
2022/06/09 12:20:34;;;;;;;13.15;3.83;;;;;;;;;;4362565;32;20027;-81
2022/06/09 12:23:04;;;;;;;6.37;2.40;;;;;;;;;;4362734;32;20058;-81
2022/06/09 12:25:39;;;;;;;10.23;2.80;;;;;;;;;;4362943;32;20063;-80
2022/06/09 12:28:24;;;;;;;11.95;2.72;;;;;;;;;;4362874;32;20066;-80
2022/06/09 12:31:09;;;;;;;10.73;3.10;;;;;;;;;;4362309;33;20101;-80
2022/06/09 12:33:36;;;;;;;12.27;2.60;;;;;;;;;;4362967;32;20046;-81
2022/06/09 12:36:06;;;;;;;8.43;2.95;;;;;;;;;;4363043;32;20065;-80
2022/06/09 12:38:35;;;;;;;6.18;2.37;;;;;;;;;;4362498;32;20019;-80
2022/06/09 12:41:08;;;;;;;7.55;2.53;;;;;;;;;;4362422;32;20057;-80
2022/06/09 12:43:46;;;;;;;10.27;2.72;;;;;;;;;;4362496;32;20024;-80
2022/06/09 12:46:17;;;;;;;6.07;2.20;;;;;;;;;;4363128;32;20020;-80
2022/06/09 12:48:45;;;;;;;8.40;2.40;;;;;;;;;;4356561;33;20384;-79
2022/06/09 12:51:16;;;;;;;8.68;2.42;;;;;;;;;;4363425;32;20015;-79
2022/06/09 12:53:53;;;;;;;5.32;1.60;;;;;;;;;;4363797;32;20027;-79
2022/06/09 12:56:39;;;;;;;7.90;2.05;;;;;;;;;;4362201;33;20027;-80
2022/06/09 12:59:14;;;;;;;8.13;2.67;;;;;;;;;;4361533;32;20061;-80
2022/06/09 13:01:48;;;;;;;8.43;2.40;;;;;;;;;;4362454;32;20126;-77
2022/06/09 13:04:15;;;;;;;9.70;4.10;;;;;;;;;;4363416;32;20120;-79
2022/06/09 13:06:46;;;;;;;8.38;2.67;;;;;;;;;;4361900;32;20050;-79
2022/06/09 13:09:41;;;;;;;6.82;2.92;;;;;;;;;;4362184;32;20061;-79
2022/06/09 13:15:02;;;;;;;7.60;2.53;;;;;;;;;;4363284;32;20050;-78
2022/06/09 13:17:28;;;;;;;8.27;2.78;;;;;;;;;;4353733;32;20160;-80
2022/06/09 13:19:56;;;;;;;10.40;2.97;;;;;;;;;;4362045;32;20042;-78
2022/06/09 13:22:23;;;;;;;11.30;3.05;;;;;;;;;;4361578;32;20065;-79
2022/06/09 13:24:48;;;;;;;9.43;2.50;;;;;;;;;;4361314;32;20031;-78
2022/06/09 13:27:17;;;;;;;10.05;3.10;;;;;;;;;;4361361;32;20028;-78
2022/06/09 13:30:04;;;;;;;14.77;3.37;;;;;;;;;;4361810;32;20027;-80
2022/06/09 13:33:02;;;;;;;8.15;2.20;;;;;;;;;;4361432;32;20082;-80
2022/06/09 13:35:34;;;;;;;7.72;2.55;;;;;;;;;;4362548;32;20432;-81
2022/06/09 13:38:19;;;;;;;11.73;2.33;;;;;;;;;;4361721;32;20088;-78
2022/06/09 13:40:47;;;;;;;14.43;2.37;;;;;;;;;;4361352;32;20049;-80
2022/06/09 13:43:17;;;;;;;10.40;2.87;;;;;;;;;;4362427;32;20311;-79
2022/06/09 13:45:48;;;;;;;15.73;2.70;;;;;;;;;;4361717;32;20085;-80
2022/06/09 13:48:22;;;;;;;8.13;2.42;;;;;;;;;;4374735;32;20224;-79
2022/06/09 13:51:03;;;;;;;14.60;2.30;;;;;;;;;;4376366;32;20062;-79
2022/06/09 13:53:31;;;;;;;9.52;3.37;;;;;;;;;;4376446;32;20031;-77
2022/06/09 13:55:56;;;;;;;12.60;2.40;;;;;;;;;;4376208;32;20031;-80
2022/06/09 13:58:22;;;;;;;11.27;2.80;;;;;;;;;;4376240;32;20081;-79
2022/06/09 14:00:54;;;;;;;6.57;2.30;;;;;;;;;;4377075;32;20065;-80
2022/06/09 14:03:22;;;;;;;7.35;2.22;;;;;;;;;;4376998;32;20099;-79
2022/06/09 14:05:49;;;;;;;9.02;3.42;;;;;;;;;;4376384;32;20023;-77
2022/06/09 14:08:14;;;;;;;7.75;2.15;;;;;;;;;;4376590;32;20108;-79
2022/06/09 14:10:40;;;;;;;7.60;2.28;;;;;;;;;;4376393;32;20031;-79
2022/06/09 14:13:06;;;;;;;10.32;2.05;;;;;;;;;;4377213;32;20353;-77
2022/06/09 14:15:32;;;;;;;7.05;2.00;;;;;;;;;;4376374;32;20027;-79
2022/06/09 14:17:57;;;;;;;6.80;2.50;;;;;;;;;;4375439;32;20046;-79
2022/06/09 14:20:25;;;;;;;7.28;1.87;;;;;;;;;;4377678;32;20031;-80
2022/06/09 14:22:50;;;;;;;10.38;2.25;;;;;;;;;;4375486;32;20088;-80
2022/06/09 14:25:16;;;;;;;8.88;1.90;;;;;;;;;;4375844;32;20345;-79
2022/06/09 14:27:51;;;;;;;10.02;2.28;;;;;;;;;;4375757;32;20031;-78
2022/06/09 14:30:18;;;;;;;9.67;2.60;;;;;;;;;;4376024;32;20050;-79
2022/06/09 14:32:43;;;;;;;10.52;2.58;;;;;;;;;;4362205;32;20152;-79
2022/06/09 14:35:13;;;;;;;12.27;2.87;;;;;;;;;;4375797;32;20066;-79
2022/06/09 14:37:41;;;;;;;9.57;2.30;;;;;;;;;;4376387;32;20027;-80
2022/06/09 14:40:19;;;;;;;8.77;2.60;;;;;;;;;;4375951;32;20047;-79
2022/06/09 14:42:45;;;;;;;12.80;2.53;;;;;;;;;;4376353;32;20053;-80
2022/06/09 14:45:11;;;;;;;8.95;2.10;;;;;;;;;;4376318;32;20031;-80
2022/06/09 14:47:44;;;;;;;8.57;2.53;;;;;;;;;;4375942;32;20035;-81
2022/06/09 14:50:11;;;;;;;9.18;3.87;;;;;;;;;;4377283;32;20054;-79
2022/06/09 14:52:36;;;;;;;7.15;2.47;;;;;;;;;;4361536;32;20039;-79
2022/06/09 14:55:01;;;;;;;10.13;2.35;;;;;;;;;;4375839;32;20027;-76
2022/06/09 14:57:29;;;;;;;9.25;2.83;;;;;;;;;;4375255;32;20089;-80
2022/06/09 14:59:55;;;;;;;10.35;2.78;;;;;;;;;;4375718;32;20065;-80
2022/06/09 15:02:21;;;;;;;9.40;2.47;;;;;;;;;;4374453;32;20027;-79
2022/06/09 15:04:47;;;;;;;10.10;2.50;;;;;;;;;;4376480;32;20027;-79
2022/06/09 15:07:14;;;;;;;11.07;2.22;;;;;;;;;;4375162;32;20042;-77
2022/06/09 15:09:39;;;;;;;8.02;2.60;;;;;;;;;;4375065;32;20131;-80
2022/06/09 15:12:27;;;;;;;7.87;3.42;;;;;;;;;;4373946;32;20054;-80
2022/06/09 15:15:13;;;;;;;10.13;2.58;;;;;;;;;;4373987;32;20031;-79
2022/06/09 15:17:38;;;;;;;8.68;2.72;;;;;;;;;;4373302;32;20030;-77
2022/06/09 15:20:04;;;;;;;10.07;2.12;;;;;;;;;;4376275;32;20392;-78
2022/06/09 15:22:32;;;;;;;18.50;4.90;;;;;;;;;;4373852;32;20055;-79
2022/06/09 15:24:58;;;;;;;16.35;2.92;;;;;;;;;;4362297;32;20103;-79
2022/06/09 15:27:24;;;;;;;9.75;2.40;;;;;;;;;;4375004;32;20019;-79
2022/06/09 15:29:49;;;;;;;9.05;2.03;;;;;;;;;;4375119;32;20132;-79
2022/06/09 15:32:15;;;;;;;6.30;2.47;;;;;;;;;;4375737;32;20431;-78
2022/06/09 15:34:41;;;;;;;8.73;2.90;;;;;;;;;;4375076;32;20053;-77
2022/06/09 15:37:13;;;;;;;7.85;2.40;;;;;;;;;;4374827;32;20335;-80
2022/06/09 15:39:38;;;;;;;9.15;2.37;;;;;;;;;;4374732;32;20027;-79
2022/06/09 15:42:03;;;;;;;6.57;1.87;;;;;;;;;;4376596;32;20027;-80
2022/06/09 15:44:29;;;;;;;9.68;2.55;;;;;;;;;;4374748;32;20078;-78
2022/06/09 15:46:55;;;;;;;8.05;2.22;;;;;;;;;;4374290;32;20039;-80
2022/06/09 15:49:20;;;;;;;5.45;2.00;;;;;;;;;;4377863;32;20057;-78
2022/06/09 15:51:48;;;;;;;7.93;2.28;;;;;;;;;;4378430;32;20389;-78
2022/06/09 15:54:13;;;;;;;9.23;2.00;;;;;;;;;;4378399;32;20065;-78
2022/06/09 15:56:38;;;;;;;6.75;2.28;;;;;;;;;;4378386;32;20020;-79
2022/06/09 15:59:11;;;;;;;6.30;2.05;;;;;;;;;;4378190;32;20397;-80
2022/06/09 16:01:39;;;;;;;9.00;2.45;;;;;;;;;;4378687;32;20015;-79
2022/06/09 16:04:10;;;;;;;4.87;1.95;;;;;;;;;;4374575;32;20015;-79
2022/06/09 16:06:35;;;;;;;8.88;2.65;;;;;;;;;;4363379;32;20073;-79
2022/06/09 16:09:01;;;;;;;9.98;2.62;;;;;;;;;;4348834;33;20106;-78
2022/06/09 16:11:26;;;;;;;4.60;1.65;;;;;;;;;;4362854;32;20426;-79
2022/06/09 16:13:52;;;;;;;6.12;1.83;;;;;;;;;;4362662;32;20063;-79
2022/06/09 16:16:17;;;;;;;8.27;2.53;;;;;;;;;;4363615;32;20081;-79
2022/06/09 16:18:42;;;;;;;6.32;1.87;;;;;;;;;;4362649;32;20053;-78